Time;durP1;ratioP1;P1;durP2;ratioP2;P2;SDS_P1;SDS_P2;PMS_P1;PMS_P2;Temp;Humidity;BMP_temperature;BMP_pressure;BME280_temperature;BME280_humidity;BME280_pressure;Samples;Min_cycle;Max_cycle;Signal;HPM_P1;HPM_P2
2024/01/09 00:02:16;;;;;;;9.10;4.97;;;-2.70;99.90;;;;;;5093476;28;20561;-75
2024/01/09 00:04:42;;;;;;;7.87;4.87;;;-2.80;99.90;;;;;;5093203;28;20658;-75
2024/01/09 00:07:07;;;;;;;7.50;6.10;;;-2.80;99.90;;;;;;5093597;28;20178;-75
2024/01/09 00:09:36;;;;;;;11.53;6.20;;;-2.80;99.90;;;;;;5093535;28;20171;-76
2024/01/09 00:12:02;;;;;;;5.67;3.93;;;-2.80;99.90;;;;;;5075494;28;20248;-76
2024/01/09 00:14:28;;;;;;;5.40;4.20;;;-2.80;99.90;;;;;;5093025;28;20169;-75
2024/01/09 00:16:53;;;;;;;7.67;5.13;;;-2.80;99.90;;;;;;5093473;28;20629;-76
2024/01/09 00:19:19;;;;;;;6.97;5.00;;;-2.90;99.90;;;;;;5093399;28;20169;-76
2024/01/09 00:21:48;;;;;;;9.33;6.10;;;-2.90;99.90;;;;;;5093390;28;20210;-76
2024/01/09 00:24:13;;;;;;;5.10;3.73;;;-2.90;99.90;;;;;;5093302;28;20548;-75
2024/01/09 00:26:45;;;;;;;4.37;3.87;;;-2.90;99.90;;;;;;5093354;28;20171;-77
2024/01/09 00:29:11;;;;;;;9.90;6.13;;;-2.90;99.90;;;;;;5092830;28;20225;-77
2024/01/09 00:31:36;;;;;;;10.03;6.40;;;-2.90;99.90;;;;;;5075234;28;20256;-76
2024/01/09 00:34:02;;;;;;;8.33;5.10;;;-2.90;99.90;;;;;;5093501;28;20166;-75
2024/01/09 00:36:28;;;;;;;7.83;5.20;;;-3.00;99.90;;;;;;5093492;28;20534;-75
2024/01/09 00:38:53;;;;;;;6.10;4.37;;;-3.00;99.90;;;;;;5093378;28;20616;-75
2024/01/09 00:41:19;;;;;;;9.87;6.73;;;-2.90;99.90;;;;;;5092930;28;20239;-76
2024/01/09 00:43:44;;;;;;;7.20;4.53;;;-3.00;99.90;;;;;;5074798;28;20641;-76
2024/01/09 00:46:10;;;;;;;8.13;5.27;;;-3.00;99.90;;;;;;5093197;28;20159;-76
2024/01/09 00:48:35;;;;;;;12.93;7.73;;;-3.00;99.90;;;;;;5093158;28;20646;-75
2024/01/09 00:51:02;;;;;;;11.77;6.07;;;-3.00;99.90;;;;;;5093107;28;20253;-77
2024/01/09 00:53:27;;;;;;;8.60;6.67;;;-3.00;99.90;;;;;;5093107;28;20180;-76
2024/01/09 00:55:53;;;;;;;8.27;4.93;;;-3.00;99.90;;;;;;5093089;28;20174;-75
2024/01/09 00:58:19;;;;;;;11.10;6.33;;;-3.00;99.90;;;;;;5092843;28;20634;-75
2024/01/09 01:00:44;;;;;;;8.33;4.97;;;-3.00;99.90;;;;;;5093088;28;20175;-75
2024/01/09 01:03:10;;;;;;;10.67;5.47;;;-3.00;99.90;;;;;;5093246;28;20182;-75
2024/01/09 01:05:35;;;;;;;9.40;5.57;;;-3.00;99.90;;;;;;5093000;28;20661;-76
2024/01/09 01:08:01;;;;;;;9.97;5.70;;;-3.00;99.90;;;;;;5093135;28;20559;-74
2024/01/09 01:10:27;;;;;;;6.30;4.33;;;-3.00;99.90;;;;;;5093140;28;20637;-76
2024/01/09 01:12:52;;;;;;;8.40;5.10;;;-3.10;99.90;;;;;;5092651;28;20627;-75
2024/01/09 01:15:18;;;;;;;6.67;4.17;;;-3.10;99.90;;;;;;5092871;28;20178;-76
2024/01/09 01:17:44;;;;;;;8.80;5.13;;;-3.10;99.90;;;;;;5093526;28;20173;-76
2024/01/09 01:20:10;;;;;;;9.53;6.47;;;-3.20;99.90;;;;;;5097116;28;20599;-75
2024/01/09 01:22:35;;;;;;;8.97;5.73;;;-3.20;99.90;;;;;;5078478;28;20219;-74
2024/01/09 01:25:01;;;;;;;10.10;5.97;;;-3.20;99.90;;;;;;5078471;28;20492;-76
2024/01/09 01:27:27;;;;;;;10.53;6.00;;;-3.20;99.90;;;;;;5096398;28;20176;-75
2024/01/09 01:29:52;;;;;;;7.27;5.23;;;-3.20;99.90;;;;;;5096426;28;20218;-76
2024/01/09 01:32:18;;;;;;;8.03;5.33;;;-3.20;99.90;;;;;;5096735;28;20239;-76
2024/01/09 01:34:44;;;;;;;7.60;5.40;;;-3.20;99.90;;;;;;5096537;28;20200;-76
2024/01/09 01:37:09;;;;;;;9.53;6.43;;;-3.20;99.90;;;;;;5096525;28;20180;-75
2024/01/09 01:39:36;;;;;;;9.77;6.23;;;-3.20;99.90;;;;;;5096238;28;20180;-75
2024/01/09 01:42:02;;;;;;;7.60;5.03;;;-3.30;99.90;;;;;;5096078;28;20210;-76
2024/01/09 01:44:27;;;;;;;8.97;6.07;;;-3.30;99.90;;;;;;5078200;28;20689;-76
2024/01/09 01:46:53;;;;;;;6.87;5.07;;;-3.30;99.90;;;;;;5096361;28;20185;-74
2024/01/09 01:49:19;;;;;;;10.07;6.27;;;-3.30;99.90;;;;;;5096328;28;20174;-74
2024/01/09 01:51:48;;;;;;;6.53;4.97;;;-3.30;99.90;;;;;;5096407;28;20174;-74
2024/01/09 01:54:14;;;;;;;8.90;5.13;;;-3.30;99.90;;;;;;5096147;28;20172;-75
2024/01/09 01:56:41;;;;;;;11.30;6.30;;;-3.30;99.90;;;;;;5095485;28;20200;-74
2024/01/09 01:59:09;;;;;;;7.57;6.03;;;-3.30;99.90;;;;;;5095944;28;20211;-74
2024/01/09 02:01:35;;;;;;;9.40;5.20;;;-3.30;99.90;;;;;;5096056;28;20744;-75
2024/01/09 02:04:02;;;;;;;7.83;5.33;;;-3.40;99.90;;;;;;5096181;28;20193;-74
2024/01/09 02:06:29;;;;;;;9.13;5.60;;;-3.30;99.90;;;;;;5095986;28;20183;-76
2024/01/09 02:08:55;;;;;;;8.10;5.50;;;-3.30;99.90;;;;;;5095865;28;20183;-74
2024/01/09 02:11:21;;;;;;;9.93;5.63;;;-3.30;99.90;;;;;;5077553;28;20294;-74
2024/01/09 02:13:47;;;;;;;9.87;5.97;;;-3.40;99.90;;;;;;5095784;28;20176;-75
2024/01/09 02:16:12;;;;;;;8.83;6.23;;;-3.30;99.90;;;;;;5077714;28;20172;-74
2024/01/09 02:18:38;;;;;;;7.53;5.13;;;-3.40;99.90;;;;;;5095698;28;20276;-75
2024/01/09 02:21:04;;;;;;;9.73;5.33;;;-3.40;99.90;;;;;;5095770;28;20191;-77
2024/01/09 02:23:30;;;;;;;5.97;4.37;;;-3.30;99.90;;;;;;5096031;28;20208;-76
2024/01/09 02:25:57;;;;;;;7.97;5.93;;;-3.40;99.90;;;;;;5095404;28;20169;-75
2024/01/09 02:28:33;;;;;;;9.07;5.90;;;-3.40;99.90;;;;;;5095971;28;20173;-76
2024/01/09 02:30:59;;;;;;;11.27;6.43;;;-3.40;99.90;;;;;;5094062;28;20223;-75
2024/01/09 02:33:27;;;;;;;8.83;4.60;;;-3.40;99.90;;;;;;5095248;28;20643;-77
2024/01/09 02:35:53;;;;;;;8.17;5.50;;;-3.40;99.90;;;;;;5095139;28;20164;-74
2024/01/09 02:38:20;;;;;;;9.93;6.23;;;-3.50;99.90;;;;;;5095048;28;20313;-74
2024/01/09 02:40:45;;;;;;;11.27;6.23;;;-3.40;99.90;;;;;;5095120;28;20176;-74
2024/01/09 02:43:11;;;;;;;7.27;4.83;;;-3.40;99.90;;;;;;5077096;28;20177;-75
2024/01/09 02:45:36;;;;;;;5.17;3.60;;;-3.40;99.90;;;;;;5095085;28;20169;-75
2024/01/09 02:48:02;;;;;;;9.23;6.63;;;-3.40;99.90;;;;;;5095115;28;20164;-75
2024/01/09 02:50:27;;;;;;;7.73;5.00;;;-3.50;99.90;;;;;;5094909;28;20173;-75
2024/01/09 02:52:53;;;;;;;8.07;4.23;;;-3.50;99.90;;;;;;5094444;28;20174;-75
2024/01/09 02:55:19;;;;;;;7.87;5.43;;;-3.50;99.90;;;;;;5094861;28;20243;-75
2024/01/09 02:57:44;;;;;;;8.77;5.87;;;-3.50;99.90;;;;;;5094797;28;20691;-75
2024/01/09 03:00:10;;;;;;;12.03;5.67;;;-3.50;99.90;;;;;;5094657;28;20181;-75
2024/01/09 03:02:37;;;;;;;7.50;5.73;;;-3.50;99.90;;;;;;5094487;28;20220;-75
2024/01/09 03:05:06;;;;;;;11.07;6.67;;;-3.50;99.90;;;;;;5094284;28;20239;-75
2024/01/09 03:07:33;;;;;;;7.03;5.40;;;-3.60;99.90;;;;;;5094164;28;20243;-76
2024/01/09 03:09:58;;;;;;;10.83;6.20;;;-3.60;99.90;;;;;;5094644;28;20202;-75
2024/01/09 03:12:24;;;;;;;12.37;6.60;;;-3.60;99.90;;;;;;5094487;28;20570;-75
2024/01/09 03:14:49;;;;;;;9.67;6.47;;;-3.60;99.90;;;;;;5076199;28;20225;-75
2024/01/09 03:17:15;;;;;;;11.60;6.73;;;-3.60;99.90;;;;;;5094393;28;20292;-76
2024/01/09 03:19:43;;;;;;;11.43;6.63;;;-3.60;99.90;;;;;;5094263;28;20183;-75
2024/01/09 03:22:08;;;;;;;7.90;5.83;;;-3.60;99.90;;;;;;5093844;28;20741;-75
2024/01/09 03:24:34;;;;;;;8.93;6.00;;;-3.60;99.90;;;;;;5094149;28;20168;-75
2024/01/09 03:27:00;;;;;;;10.87;6.83;;;-3.60;99.90;;;;;;5094292;28;20689;-75
2024/01/09 03:29:25;;;;;;;9.03;5.77;;;-3.70;99.90;;;;;;5094008;28;20228;-75
2024/01/09 03:31:51;;;;;;;9.97;6.80;;;-3.60;99.90;;;;;;5094163;28;20513;-74
2024/01/09 03:34:16;;;;;;;13.23;6.63;;;-3.70;99.90;;;;;;5093936;28;20180;-74
2024/01/09 03:36:44;;;;;;;10.40;5.77;;;-3.70;99.90;;;;;;5093733;28;20188;-76
2024/01/09 03:39:11;;;;;;;8.57;4.97;;;-3.70;99.90;;;;;;5094026;28;20170;-74
2024/01/09 03:41:37;;;;;;;10.13;6.27;;;-3.70;99.90;;;;;;5093699;28;20257;-75
2024/01/09 03:44:02;;;;;;;11.10;6.43;;;-3.70;99.90;;;;;;5094078;28;20583;-76
2024/01/09 03:46:28;;;;;;;6.93;4.80;;;-3.80;99.90;;;;;;5094035;28;20188;-75
2024/01/09 03:48:54;;;;;;;9.73;5.73;;;-3.80;99.90;;;;;;5093781;28;20624;-75
2024/01/09 03:51:19;;;;;;;6.13;3.80;;;-3.80;99.90;;;;;;5093454;28;20185;-76
2024/01/09 03:53:45;;;;;;;8.93;5.67;;;-3.80;99.90;;;;;;5094088;28;20181;-74
2024/01/09 03:56:11;;;;;;;6.77;4.43;;;-3.80;99.90;;;;;;5093783;28;20583;-75
2024/01/09 03:58:37;;;;;;;7.83;4.07;;;-3.80;99.90;;;;;;5093663;28;20225;-75
2024/01/09 04:01:03;;;;;;;4.87;3.80;;;-3.90;99.90;;;;;;5093536;28;20160;-75
2024/01/09 04:03:28;;;;;;;10.77;5.90;;;-3.90;99.90;;;;;;5093583;28;20184;-76
2024/01/09 04:05:54;;;;;;;9.27;5.53;;;-3.90;99.90;;;;;;5092897;28;20231;-75
2024/01/09 04:08:19;;;;;;;10.67;5.93;;;-3.90;99.90;;;;;;5093559;28;20178;-75
2024/01/09 04:10:45;;;;;;;8.03;5.67;;;-3.90;99.90;;;;;;5093443;28;20226;-76
2024/01/09 04:13:10;;;;;;;11.97;7.17;;;-3.90;99.90;;;;;;5093535;28;20214;-77
2024/01/09 04:15:36;;;;;;;9.80;5.70;;;-3.90;99.90;;;;;;5093341;28;20168;-74
2024/01/09 04:18:02;;;;;;;9.07;5.83;;;-3.90;99.90;;;;;;5093375;28;20254;-76
2024/01/09 04:20:28;;;;;;;12.43;6.43;;;-3.90;99.90;;;;;;5092913;28;20180;-76
2024/01/09 04:22:53;;;;;;;11.07;6.33;;;-3.90;99.90;;;;;;5093145;28;20230;-75
2024/01/09 04:25:19;;;;;;;8.43;4.90;;;-3.90;99.90;;;;;;5093478;28;20172;-76
2024/01/09 04:27:44;;;;;;;11.83;6.23;;;-3.90;99.90;;;;;;5093438;28;20199;-75
2024/01/09 04:30:11;;;;;;;10.20;5.10;;;-4.00;99.90;;;;;;5093200;28;20307;-75
2024/01/09 04:32:36;;;;;;;12.17;6.80;;;-4.00;99.90;;;;;;5093334;28;20176;-76
2024/01/09 04:35:03;;;;;;;9.77;5.00;;;-4.00;99.90;;;;;;5092597;28;20176;-76
2024/01/09 04:37:28;;;;;;;10.70;6.30;;;-4.00;99.90;;;;;;5093249;28;20259;-76
2024/01/09 04:39:54;;;;;;;5.47;4.23;;;-4.00;99.90;;;;;;5093178;28;20259;-75
2024/01/09 04:42:19;;;;;;;11.10;7.17;;;-4.00;99.90;;;;;;5093176;28;20261;-76
2024/01/09 04:44:45;;;;;;;12.73;5.53;;;-4.00;99.90;;;;;;5093008;28;20221;-74
2024/01/09 04:47:15;;;;;;;9.90;5.33;;;-4.00;99.90;;;;;;5074682;28;20264;-75
2024/01/09 04:49:44;;;;;;;7.00;4.27;;;-4.00;99.90;;;;;;5093021;28;20266;-75
2024/01/09 04:52:09;;;;;;;6.50;4.70;;;-4.00;99.90;;;;;;5092941;28;20248;-74
2024/01/09 04:54:35;;;;;;;9.90;5.80;;;-4.00;99.90;;;;;;5096847;28;20192;-74
2024/01/09 04:57:00;;;;;;;10.40;6.33;;;-4.00;99.90;;;;;;5096785;28;20204;-75
2024/01/09 04:59:26;;;;;;;8.83;6.20;;;-4.00;99.90;;;;;;5097135;28;20222;-76
2024/01/09 05:01:52;;;;;;;10.50;6.03;;;-4.00;99.90;;;;;;5096777;28;20210;-74
2024/01/09 05:04:17;;;;;;;6.47;3.63;;;-4.00;99.90;;;;;;5096497;28;20640;-76
2024/01/09 05:06:43;;;;;;;14.97;6.00;;;-4.10;99.90;;;;;;5096853;28;20171;-75
2024/01/09 05:09:09;;;;;;;11.73;6.50;;;-4.10;99.90;;;;;;5096675;28;20595;-75
2024/01/09 05:11:35;;;;;;;12.70;7.13;;;-4.10;99.90;;;;;;5096757;28;20687;-76
2024/01/09 05:14:00;;;;;;;9.53;6.13;;;-4.00;99.90;;;;;;5096584;28;20298;-75
2024/01/09 05:16:27;;;;;;;8.40;5.57;;;-4.10;99.90;;;;;;5096464;28;20172;-75
2024/01/09 05:18:53;;;;;;;8.67;6.00;;;-4.10;99.90;;;;;;5096457;28;20176;-74
2024/01/09 05:21:19;;;;;;;11.83;7.27;;;-4.10;99.90;;;;;;5077893;28;20212;-75
2024/01/09 05:23:44;;;;;;;10.00;5.73;;;-4.10;99.90;;;;;;5078168;28;20178;-76
2024/01/09 05:26:10;;;;;;;8.33;5.47;;;-4.10;99.90;;;;;;5096015;28;20636;-76
2024/01/09 05:28:35;;;;;;;11.10;6.70;;;-4.20;99.90;;;;;;5096406;28;20269;-75
2024/01/09 05:31:02;;;;;;;9.20;5.73;;;-4.20;99.90;;;;;;5095759;28;20680;-74
2024/01/09 05:33:27;;;;;;;10.43;6.27;;;-4.10;99.90;;;;;;5096118;28;20233;-75
2024/01/09 05:35:53;;;;;;;9.03;5.53;;;-4.20;99.90;;;;;;5077848;28;20168;-75
2024/01/09 05:38:19;;;;;;;6.37;4.30;;;-4.20;99.90;;;;;;5078296;28;20281;-78
2024/01/09 05:40:44;;;;;;;6.63;3.70;;;-4.20;99.90;;;;;;5096034;28;20178;-75
2024/01/09 05:43:10;;;;;;;8.00;5.30;;;-4.20;99.90;;;;;;5095848;28;20207;-75
2024/01/09 05:45:36;;;;;;;8.83;5.90;;;-4.20;99.90;;;;;;5077659;28;20177;-75
2024/01/09 05:48:01;;;;;;;10.27;6.00;;;-4.20;99.90;;;;;;5095873;28;20251;-75
2024/01/09 05:50:27;;;;;;;8.10;4.83;;;-4.20;99.90;;;;;;5095980;28;20221;-75
2024/01/09 05:52:52;;;;;;;4.53;4.13;;;-4.20;99.90;;;;;;5095802;28;20502;-76
2024/01/09 05:55:18;;;;;;;11.80;6.07;;;-4.20;99.90;;;;;;5077530;28;20524;-76
2024/01/09 05:57:43;;;;;;;5.77;3.77;;;-4.20;99.90;;;;;;5095673;28;20176;-77
2024/01/09 06:00:10;;;;;;;11.57;6.03;;;-4.20;99.90;;;;;;5095839;28;20651;-77
2024/01/09 06:02:35;;;;;;;8.87;5.27;;;-4.20;99.90;;;;;;5095088;28;20349;-76
2024/01/09 06:05:02;;;;;;;9.10;5.77;;;-4.20;99.90;;;;;;5095226;28;20271;-75
2024/01/09 06:07:27;;;;;;;6.33;3.33;;;-4.20;99.90;;;;;;5095385;28;20160;-76
2024/01/09 06:09:54;;;;;;;9.80;6.67;;;-4.20;99.90;;;;;;5095184;28;20274;-77
2024/01/09 06:12:19;;;;;;;8.13;5.10;;;-4.20;99.90;;;;;;5095031;28;20635;-74
2024/01/09 06:14:45;;;;;;;9.60;5.63;;;-4.20;99.90;;;;;;5094927;28;20801;-77
2024/01/09 06:17:12;;;;;;;9.83;6.30;;;-4.20;99.90;;;;;;5094847;28;20659;-76
2024/01/09 06:19:37;;;;;;;8.73;4.93;;;-4.20;99.90;;;;;;5095415;28;20179;-74
2024/01/09 06:22:03;;;;;;;9.20;6.20;;;-4.20;99.90;;;;;;5094751;28;20652;-75
2024/01/09 06:24:28;;;;;;;8.83;5.63;;;-4.20;99.90;;;;;;5094795;28;20175;-75
2024/01/09 06:26:54;;;;;;;8.03;5.30;;;-4.20;99.90;;;;;;5094818;28;20284;-76
2024/01/09 06:29:20;;;;;;;9.83;5.57;;;-4.20;99.90;;;;;;5094336;28;20224;-77
2024/01/09 06:31:45;;;;;;;6.27;4.67;;;-4.20;99.90;;;;;;5094488;28;20279;-78
2024/01/09 06:34:11;;;;;;;12.30;5.87;;;-4.20;99.90;;;;;;5094916;28;20578;-76
2024/01/09 06:36:36;;;;;;;11.00;5.90;;;-4.20;99.90;;;;;;5094621;28;20177;-77
2024/01/09 06:39:02;;;;;;;9.10;5.93;;;-4.30;99.90;;;;;;5094656;28;20179;-76
2024/01/09 06:41:28;;;;;;;9.77;5.10;;;-4.30;99.90;;;;;;5094225;28;20694;-75
2024/01/09 06:43:53;;;;;;;11.07;6.27;;;-4.30;99.90;;;;;;5094239;28;20529;-79
2024/01/09 06:46:19;;;;;;;13.90;6.40;;;-4.30;99.90;;;;;;5094040;28;20581;-76
2024/01/09 06:48:44;;;;;;;11.27;5.63;;;-4.30;99.90;;;;;;5094142;28;20236;-77
2024/01/09 06:51:12;;;;;;;10.00;6.07;;;-4.30;99.90;;;;;;5094291;28;20166;-77
2024/01/09 06:53:38;;;;;;;12.10;6.57;;;-4.30;99.90;;;;;;5075854;28;20182;-76
2024/01/09 06:56:04;;;;;;;7.87;4.57;;;-4.30;99.90;;;;;;5094126;28;20165;-77
2024/01/09 06:58:30;;;;;;;12.23;5.60;;;-4.30;99.90;;;;;;5094143;28;20635;-77
2024/01/09 07:00:56;;;;;;;12.00;6.90;;;-4.30;99.90;;;;;;5093862;28;20215;-76
2024/01/09 07:03:21;;;;;;;5.87;4.60;;;-4.30;99.90;;;;;;5094281;28;20181;-78
2024/01/09 07:05:47;;;;;;;9.23;4.70;;;-4.30;99.90;;;;;;5093598;28;20268;-76
2024/01/09 07:08:13;;;;;;;9.73;6.10;;;-4.30;99.90;;;;;;5094356;28;20197;-77
2024/01/09 07:10:38;;;;;;;12.37;6.20;;;-4.30;99.90;;;;;;5093538;28;20168;-77
2024/01/09 07:13:04;;;;;;;7.83;5.17;;;-4.30;99.90;;;;;;5093791;28;20631;-77
2024/01/09 07:15:29;;;;;;;15.93;5.83;;;-4.30;99.90;;;;;;5093004;28;20171;-76
2024/01/09 07:17:55;;;;;;;9.07;5.47;;;-4.30;99.90;;;;;;5094105;28;20168;-77
2024/01/09 07:20:20;;;;;;;11.97;6.23;;;-4.30;99.90;;;;;;5093919;28;20172;-76
2024/01/09 07:22:46;;;;;;;9.27;5.30;;;-4.40;99.90;;;;;;5093811;28;20711;-77
2024/01/09 07:25:14;;;;;;;10.97;6.87;;;-4.40;99.90;;;;;;5093521;28;20172;-78
2024/01/09 07:27:39;;;;;;;8.67;5.47;;;-4.40;99.90;;;;;;5093566;28;20168;-78
2024/01/09 07:30:05;;;;;;;8.47;6.43;;;-4.40;99.90;;;;;;5092819;28;20215;-77
2024/01/09 07:32:31;;;;;;;6.77;5.07;;;-4.40;99.90;;;;;;5094050;28;20172;-77
2024/01/09 07:34:57;;;;;;;8.97;4.63;;;-4.40;99.90;;;;;;5093862;28;20259;-76
2024/01/09 07:37:22;;;;;;;8.77;5.63;;;-4.40;99.90;;;;;;5093280;28;20591;-79
2024/01/09 07:39:48;;;;;;;7.57;4.03;;;-4.50;99.90;;;;;;5093400;28;20179;-76
2024/01/09 07:42:14;;;;;;;6.23;3.93;;;-4.50;99.90;;;;;;5074722;28;20203;-76
2024/01/09 07:44:39;;;;;;;9.53;6.60;;;-4.50;99.90;;;;;;5092579;28;20623;-79
2024/01/09 07:47:07;;;;;;;10.50;6.17;;;-4.50;99.90;;;;;;5092682;28;20219;-78
2024/01/09 07:49:33;;;;;;;8.23;6.00;;;-4.50;99.90;;;;;;5058840;28;20258;-77
2024/01/09 07:51:59;;;;;;;9.83;5.17;;;-4.50;99.90;;;;;;5093328;28;20261;-77
2024/01/09 07:54:24;;;;;;;10.27;5.80;;;-4.50;99.90;;;;;;5093340;28;20628;-76
2024/01/09 07:56:50;;;;;;;8.37;5.43;;;-4.50;99.90;;;;;;5093045;28;20191;-75
2024/01/09 07:59:15;;;;;;;7.97;4.80;;;-4.50;99.90;;;;;;5072941;28;20172;-75
2024/01/09 08:01:41;;;;;;;8.53;4.77;;;-4.50;99.90;;;;;;5093075;28;20203;-78
2024/01/09 08:04:06;;;;;;;6.73;3.93;;;-4.50;99.90;;;;;;5092791;28;20240;-77
2024/01/09 08:06:32;;;;;;;16.90;6.87;;;-4.50;99.90;;;;;;5092652;28;20172;-76
2024/01/09 08:08:58;;;;;;;9.60;6.03;;;-4.50;99.90;;;;;;5092711;28;20176;-76
2024/01/09 08:11:23;;;;;;;7.30;5.27;;;-4.40;99.90;;;;;;5092906;28;20599;-76
2024/01/09 08:13:49;;;;;;;9.50;6.40;;;-4.40;99.90;;;;;;5092528;28;20497;-75
2024/01/09 08:16:16;;;;;;;10.63;6.30;;;-4.40;99.90;;;;;;5092545;28;20207;-77
2024/01/09 08:18:42;;;;;;;11.90;6.87;;;-4.40;99.90;;;;;;5092422;28;20211;-75
2024/01/09 08:21:07;;;;;;;11.87;7.07;;;-4.40;99.90;;;;;;5092396;28;20168;-76
2024/01/09 08:23:34;;;;;;;11.10;6.80;;;-4.30;99.90;;;;;;5092457;28;20238;-78
2024/01/09 08:26:00;;;;;;;7.83;5.63;;;-4.30;99.90;;;;;;5092604;28;20176;-77
2024/01/09 08:28:25;;;;;;;10.97;6.57;;;-4.30;99.90;;;;;;5094098;28;20275;-75
2024/01/09 08:30:51;;;;;;;9.47;6.37;;;-4.30;99.90;;;;;;5096609;28;20233;-79
2024/01/09 08:33:16;;;;;;;8.50;4.77;;;-4.40;99.90;;;;;;5096961;28;20267;-76
2024/01/09 08:35:44;;;;;;;7.93;4.93;;;-4.40;99.90;;;;;;5097168;28;20176;-76
2024/01/09 08:38:10;;;;;;;9.60;6.20;;;-4.20;99.90;;;;;;5096784;28;20168;-75
2024/01/09 08:40:35;;;;;;;7.50;5.53;;;-3.60;99.90;;;;;;5096053;28;20305;-77
2024/01/09 08:43:01;;;;;;;5.37;4.83;;;-3.10;99.90;;;;;;5096693;28;20339;-75
2024/01/09 08:45:26;;;;;;;8.10;6.00;;;-2.80;99.90;;;;;;5078197;28;20760;-75
2024/01/09 08:47:52;;;;;;;9.07;6.07;;;-2.60;99.90;;;;;;5096215;28;20182;-75
2024/01/09 08:50:17;;;;;;;7.00;5.23;;;-2.00;99.90;;;;;;5096349;28;20180;-74
2024/01/09 08:52:43;;;;;;;7.90;4.27;;;-1.50;99.80;;;;;;5095800;28;20259;-75
2024/01/09 08:55:09;;;;;;;7.83;4.90;;;-1.30;99.10;;;;;;5095744;28;20592;-73
2024/01/09 08:57:35;;;;;;;7.27;5.70;;;-1.40;98.00;;;;;;5095991;28;20211;-75
2024/01/09 09:00:01;;;;;;;6.30;4.93;;;-1.20;98.50;;;;;;5095803;28;20171;-74
2024/01/09 09:02:27;;;;;;;7.73;5.53;;;-0.90;98.10;;;;;;5095980;28;20286;-75
2024/01/09 09:04:53;;;;;;;11.13;5.43;;;-0.60;97.20;;;;;;5075310;28;20196;-73
2024/01/09 09:07:18;;;;;;;6.73;4.47;;;-0.50;95.80;;;;;;5090468;28;20642;-72
2024/01/09 09:09:44;;;;;;;9.77;5.40;;;-1.10;96.40;;;;;;5095638;28;20187;-73
2024/01/09 09:12:11;;;;;;;6.07;5.20;;;-1.20;97.50;;;;;;5093999;28;20625;-74
2024/01/09 09:14:36;;;;;;;8.07;5.10;;;-0.70;97.00;;;;;;5091254;28;20172;-73
2024/01/09 09:17:02;;;;;;;7.47;5.17;;;-0.60;96.00;;;;;;5094745;28;20225;-73
2024/01/09 09:19:28;;;;;;;8.37;4.93;;;-0.60;96.10;;;;;;5080921;28;20185;-73
2024/01/09 09:21:53;;;;;;;4.57;4.07;;;-0.70;95.90;;;;;;5089346;28;20266;-74
2024/01/09 09:24:19;;;;;;;8.17;5.57;;;-0.90;96.60;;;;;;5074875;28;20585;-74
2024/01/09 09:26:45;;;;;;;8.20;5.93;;;-1.10;96.90;;;;;;5075137;28;20176;-73
2024/01/09 09:29:10;;;;;;;7.60;5.00;;;-1.10;97.00;;;;;;5075158;28;20183;-73
2024/01/09 09:31:36;;;;;;;7.37;5.63;;;-1.20;97.00;;;;;;5076038;28;20675;-72
2024/01/09 09:34:02;;;;;;;10.37;4.70;;;-1.10;97.10;;;;;;5095081;28;20181;-74
2024/01/09 09:36:27;;;;;;;7.57;5.37;;;-1.10;96.70;;;;;;5094538;28;20184;-74
2024/01/09 09:38:53;;;;;;;7.37;4.87;;;-0.90;96.50;;;;;;5094326;28;20172;-72
2024/01/09 09:41:20;;;;;;;8.07;4.93;;;-1.00;96.50;;;;;;5095130;28;20208;-73
2024/01/09 09:43:52;;;;;;;8.73;5.73;;;-0.80;96.20;;;;;;5094663;28;20535;-72
2024/01/09 09:46:25;;;;;;;8.23;5.20;;;-0.60;95.80;;;;;;5093353;28;20309;-72
2024/01/09 09:48:53;;;;;;;10.27;5.07;;;-0.80;95.70;;;;;;5093166;28;20192;-73
2024/01/09 09:51:20;;;;;;;7.97;3.97;;;-0.70;95.20;;;;;;5093532;28;20250;-72
2024/01/09 09:53:46;;;;;;;6.33;4.30;;;-0.50;95.20;;;;;;5094462;28;20188;-72
2024/01/09 09:56:13;;;;;;;8.00;5.80;;;-0.50;95.00;;;;;;5094317;28;20188;-72
2024/01/09 09:58:40;;;;;;;6.27;4.53;;;-0.50;94.90;;;;;;5094699;28;20217;-71
2024/01/09 10:01:10;;;;;;;7.33;5.77;;;-0.50;95.10;;;;;;5095214;28;20255;-74
2024/01/09 10:03:37;;;;;;;6.77;4.80;;;-0.40;94.80;;;;;;5094491;28;20702;-71
2024/01/09 10:06:06;;;;;;;6.03;4.80;;;-0.50;94.70;;;;;;5093076;28;20193;-72
2024/01/09 10:08:35;;;;;;;7.60;4.73;;;-0.30;94.80;;;;;;5094172;28;20344;-71
2024/01/09 10:11:01;;;;;;;8.10;5.80;;;-0.10;94.00;;;;;;5094414;28;20511;-73
2024/01/09 10:13:27;;;;;;;8.80;5.37;;;0.30;93.60;;;;;;5093983;28;20189;-73
2024/01/09 10:15:57;;;;;;;6.07;4.00;;;-0.20;93.10;;;;;;5091203;28;20181;-70
2024/01/09 10:18:22;;;;;;;9.23;4.60;;;-0.60;94.20;;;;;;5093710;28;20203;-70
2024/01/09 10:20:48;;;;;;;5.87;4.17;;;-0.40;94.30;;;;;;5091023;28;20216;-72
2024/01/09 10:23:14;;;;;;;6.30;4.73;;;-0.50;94.00;;;;;;5093474;28;20206;-71
2024/01/09 10:25:40;;;;;;;8.17;4.17;;;-0.40;93.50;;;;;;5094317;28;20177;-73
2024/01/09 10:28:08;;;;;;;7.07;4.63;;;-0.40;93.70;;;;;;5093645;28;20169;-71
2024/01/09 10:30:37;;;;;;;8.03;5.33;;;-0.30;93.10;;;;;;5092692;28;20303;-73
2024/01/09 10:33:09;;;;;;;7.97;5.10;;;-0.30;93.20;;;;;;5074756;28;20173;-73
2024/01/09 10:35:35;;;;;;;5.77;4.67;;;-0.50;93.20;;;;;;5093782;28;20176;-71
2024/01/09 10:38:00;;;;;;;7.57;4.90;;;-0.50;93.40;;;;;;5093968;28;20172;-73
2024/01/09 10:40:26;;;;;;;7.40;5.03;;;-0.40;93.10;;;;;;5093943;28;20639;-72
2024/01/09 10:42:52;;;;;;;9.33;6.27;;;-0.40;93.60;;;;;;5093430;28;20241;-71
2024/01/09 10:45:21;;;;;;;7.53;4.17;;;0.10;93.30;;;;;;5093722;28;20175;-72
2024/01/09 10:47:49;;;;;;;8.17;5.40;;;0.10;92.30;;;;;;5094045;28;20226;-72
2024/01/09 10:50:16;;;;;;;5.03;4.03;;;0.20;91.90;;;;;;5092323;28;20212;-71
2024/01/09 10:52:43;;;;;;;7.97;5.33;;;-0.10;91.90;;;;;;5090814;28;20235;-72
2024/01/09 10:55:10;;;;;;;5.07;3.47;;;-0.10;92.20;;;;;;5091027;28;20263;-71
2024/01/09 10:57:37;;;;;;;8.30;4.97;;;-0.10;92.00;;;;;;5090433;28;20176;-72
2024/01/09 11:00:08;;;;;;;5.87;5.10;;;-0.10;91.70;;;;;;5093603;28;20190;-71
2024/01/09 11:02:36;;;;;;;6.67;4.93;;;-0.20;91.80;;;;;;5075481;28;20203;-72
2024/01/09 11:05:03;;;;;;;8.40;5.23;;;0.00;91.90;;;;;;5093055;28;20188;-72
2024/01/09 11:07:30;;;;;;;5.20;3.70;;;-0.10;90.90;;;;;;5075060;28;20181;-73
2024/01/09 11:09:58;;;;;;;6.53;5.03;;;-0.20;91.90;;;;;;5089333;28;20180;-72
2024/01/09 11:12:30;;;;;;;9.60;5.80;;;-0.20;91.70;;;;;;5092831;28;20177;-72
2024/01/09 11:15:18;;;;;;;6.50;4.33;;;-0.40;92.60;;;;;;5092277;28;20245;-72
2024/01/09 11:17:53;;;;;;;6.77;4.20;;;-0.20;91.60;;;;;;5092993;28;20186;-74
2024/01/09 11:20:19;;;;;;;6.93;5.30;;;-0.20;91.60;;;;;;5082901;28;20272;-72
2024/01/09 11:22:45;;;;;;;6.80;5.60;;;-0.10;91.80;;;;;;5092891;28;20233;-72
2024/01/09 11:25:17;;;;;;;7.67;5.23;;;-0.10;91.90;;;;;;5090946;28;20653;-74
2024/01/09 11:27:47;;;;;;;9.60;5.00;;;-0.10;91.20;;;;;;5092866;28;20197;-72
2024/01/09 11:30:21;;;;;;;5.37;4.13;;;0.00;90.80;;;;;;5092045;28;20230;-72
2024/01/09 11:32:47;;;;;;;4.53;3.83;;;0.10;90.60;;;;;;5093069;28;20178;-73
2024/01/09 11:35:14;;;;;;;6.68;5.18;;;-0.10;90.60;;;;;;5092026;28;20394;-74
2024/01/09 11:37:46;;;;;;;6.00;5.30;;;0.00;90.80;;;;;;5092598;28;20172;-72
2024/01/09 11:40:12;;;;;;;11.63;6.13;;;0.30;90.80;;;;;;5091993;28;20267;-73
2024/01/09 11:42:40;;;;;;;10.60;4.87;;;0.30;90.20;;;;;;5093192;28;20222;-72
2024/01/09 11:45:07;;;;;;;9.27;4.87;;;0.40;89.80;;;;;;5092556;28;20270;-73
2024/01/09 11:47:36;;;;;;;8.47;4.33;;;0.50;89.80;;;;;;5092251;28;20316;-74
2024/01/09 11:50:11;;;;;;;5.93;4.68;;;0.10;89.20;;;;;;5091284;28;20461;-74
2024/01/09 11:52:39;;;;;;;5.20;4.40;;;0.00;89.30;;;;;;5090713;28;20167;-71
2024/01/09 11:55:05;;;;;;;8.67;5.27;;;-0.10;90.00;;;;;;5073243;28;20512;-72
2024/01/09 11:57:32;;;;;;;11.17;5.90;;;-0.10;90.30;;;;;;5092106;28;20241;-71
2024/01/09 12:00:00;;;;;;;7.00;5.20;;;0.20;90.00;;;;;;5092466;28;20175;-70
2024/01/09 12:02:26;;;;;;;7.23;4.70;;;0.10;88.40;;;;;;5092167;28;20205;-72
2024/01/09 12:04:52;;;;;;;9.20;5.93;;;0.20;89.50;;;;;;5090606;28;20187;-72
2024/01/09 12:07:18;;;;;;;6.10;5.17;;;0.50;89.70;;;;;;5091400;28;20164;-72
2024/01/09 12:09:47;;;;;;;7.20;4.10;;;0.90;88.10;;;;;;5091787;28;20232;-71
2024/01/09 12:12:22;;;;;;;10.07;6.30;;;0.60;86.80;;;;;;5091638;28;20207;-73
2024/01/09 12:14:55;;;;;;;7.90;4.57;;;0.40;88.70;;;;;;5073106;28;20176;-72
2024/01/09 12:17:33;;;;;;;6.57;4.87;;;0.40;87.30;;;;;;5091542;28;20207;-72
2024/01/09 12:19:59;;;;;;;6.30;4.50;;;0.40;88.00;;;;;;5091095;28;20167;-71
2024/01/09 12:22:25;;;;;;;6.47;4.33;;;0.30;87.40;;;;;;5072962;28;20567;-70
2024/01/09 12:24:52;;;;;;;8.10;5.20;;;0.10;87.70;;;;;;5091791;28;20269;-70
2024/01/09 12:27:23;;;;;;;10.40;5.50;;;0.30;87.80;;;;;;5089791;28;20259;-71
2024/01/09 12:29:49;;;;;;;5.97;4.67;;;0.20;88.50;;;;;;5091148;28;20248;-71
2024/01/09 12:32:15;;;;;;;7.17;5.20;;;0.20;88.10;;;;;;5091349;28;20247;-71
2024/01/09 12:34:41;;;;;;;6.03;4.63;;;0.20;88.00;;;;;;5091094;28;20195;-71
2024/01/09 12:37:08;;;;;;;5.60;3.60;;;0.30;88.50;;;;;;5090055;28;20176;-71
2024/01/09 12:39:35;;;;;;;5.80;4.23;;;0.20;87.20;;;;;;5091686;28;20271;-70
2024/01/09 12:42:08;;;;;;;9.63;5.37;;;0.10;87.80;;;;;;5091059;28;20662;-70